createdAt,value
2023-10-23T00:01:40.479Z,4.37
2023-10-23T00:04:43.559Z,3.58
2023-10-23T00:07:46.007Z,4.43
2023-10-23T00:10:48.730Z,7.72
2023-10-23T00:13:51.266Z,5.78
2023-10-23T00:16:54.342Z,5.22
2023-10-23T00:19:56.709Z,6.25
2023-10-23T00:22:59.426Z,5.15
2023-10-23T00:26:01.668Z,5.80
2023-10-23T00:29:04.530Z,4.30
2023-10-23T00:32:07.175Z,5.20
2023-10-23T00:35:09.944Z,3.17
2023-10-23T00:38:12.533Z,3.95
2023-10-23T00:41:15.171Z,3.25
2023-10-23T00:44:17.542Z,4.95
2023-10-23T00:47:22.548Z,3.55
2023-10-23T00:50:24.904Z,4.43
2023-10-23T00:53:31.601Z,7.20
2023-10-23T00:56:35.852Z,4.53
2023-10-23T00:59:38.527Z,2.28
2023-10-23T01:02:41.504Z,2.28
2023-10-23T01:05:44.674Z,3.80
2023-10-23T01:08:47.384Z,4.75
2023-10-23T01:11:50.335Z,3.05
2023-10-23T01:14:52.674Z,5.45
2023-10-23T01:17:56.598Z,5.32
2023-10-23T01:20:58.942Z,4.55
2023-10-23T01:24:06.195Z,5.72
2023-10-23T01:27:08.445Z,3.58
2023-10-23T01:30:11.668Z,3.80
2023-10-23T01:33:14.218Z,4.10
2023-10-23T01:36:16.813Z,7.57
2023-10-23T01:39:19.285Z,5.55
2023-10-23T01:42:21.903Z,2.90
2023-10-23T01:45:24.324Z,5.32
2023-10-23T01:48:27.900Z,7.37
2023-10-23T01:51:31.048Z,4.90
2023-10-23T01:54:33.688Z,7.25
2023-10-23T01:57:36.391Z,3.67
2023-10-23T02:00:39.303Z,3.70
2023-10-23T02:03:43.281Z,5.05
2023-10-23T02:06:45.911Z,4.57
2023-10-23T02:09:48.543Z,3.78
2023-10-23T02:12:51.042Z,2.67
2023-10-23T02:15:53.694Z,4.32
2023-10-23T02:18:58.992Z,4.60
2023-10-23T02:22:01.741Z,2.83
2023-10-23T02:25:05.186Z,8.80
2023-10-23T02:28:07.903Z,2.62
2023-10-23T02:31:10.438Z,3.05
2023-10-23T02:34:14.194Z,7.03
2023-10-23T02:37:17.004Z,2.60
2023-10-23T02:40:19.768Z,3.40
2023-10-23T02:43:22.324Z,4.28
2023-10-23T02:46:24.897Z,11.20
2023-10-23T02:49:27.280Z,8.75
2023-10-23T02:52:29.911Z,7.65
2023-10-23T02:55:32.307Z,3.67
2023-10-23T02:58:37.296Z,5.28
2023-10-23T03:01:39.566Z,3.87
2023-10-23T03:04:42.553Z,3.20
2023-10-23T03:07:45.168Z,5.60
2023-10-23T03:10:48.002Z,3.03
2023-10-23T03:13:51.707Z,9.30
2023-10-23T03:16:54.408Z,3.65
2023-10-23T03:19:57.005Z,4.03
2023-10-23T03:22:59.889Z,2.72
2023-10-23T03:26:02.949Z,2.90
2023-10-23T03:29:06.089Z,2.33
2023-10-23T03:32:08.400Z,2.60
2023-10-23T03:35:11.052Z,5.78
2023-10-23T03:38:14.945Z,3.05
2023-10-23T03:41:17.566Z,3.87
2023-10-23T03:44:22.000Z,6.00
2023-10-23T03:47:24.624Z,3.33
2023-10-23T03:50:27.155Z,5.10
2023-10-23T03:53:30.049Z,2.00
2023-10-23T03:56:32.403Z,4.30
2023-10-23T03:59:35.063Z,4.10
2023-10-23T04:02:37.512Z,6.62
2023-10-23T04:05:41.310Z,2.08
2023-10-23T04:08:44.320Z,2.47
2023-10-23T04:11:47.171Z,7.20
2023-10-23T04:14:49.490Z,2.17
2023-10-23T04:17:52.238Z,7.15
2023-10-23T04:21:08.996Z,4.40
2023-10-23T04:24:11.671Z,6.78
2023-10-23T04:27:14.404Z,7.60
2023-10-23T04:30:17.871Z,3.90
2023-10-23T04:33:23.332Z,5.45
2023-10-23T04:36:26.229Z,3.75
2023-10-23T04:39:28.713Z,8.00
2023-10-23T04:42:31.419Z,2.80
2023-10-23T04:45:36.064Z,2.62
2023-10-23T04:48:38.806Z,2.85
2023-10-23T04:51:41.261Z,3.95
2023-10-23T04:54:43.927Z,2.12
2023-10-23T04:57:46.822Z,4.50
2023-10-23T05:00:49.893Z,2.45
2023-10-23T05:03:52.768Z,4.37
2023-10-23T05:06:56.955Z,4.07
2023-10-23T05:09:59.515Z,3.83
2023-10-23T05:13:04.360Z,3.47
2023-10-23T05:16:08.172Z,4.70
2023-10-23T05:19:10.859Z,3.50
2023-10-23T05:22:13.587Z,4.25
2023-10-23T05:25:16.162Z,2.65
2023-10-23T05:28:18.664Z,3.15
2023-10-23T05:31:21.738Z,7.35
2023-10-23T05:34:23.980Z,4.62
2023-10-23T05:37:26.677Z,2.08
2023-10-23T05:40:28.994Z,4.20
2023-10-23T05:43:31.720Z,8.43
2023-10-23T05:46:35.460Z,3.40
2023-10-23T05:49:38.455Z,5.95
2023-10-23T05:52:40.865Z,3.20
2023-10-23T05:55:43.656Z,9.27
2023-10-23T05:58:48.185Z,2.75
2023-10-23T06:01:50.822Z,7.87
2023-10-23T06:04:53.567Z,3.12
2023-10-23T06:07:55.870Z,2.37
2023-10-23T06:10:58.675Z,3.75
2023-10-23T06:14:01.112Z,4.50
2023-10-23T06:17:03.942Z,3.72
2023-10-23T06:20:06.901Z,4.60
2023-10-23T06:23:09.721Z,5.00
2023-10-23T06:26:12.111Z,4.80
2023-10-23T06:29:14.733Z,2.83
2023-10-23T06:32:19.228Z,4.80
2023-10-23T06:35:22.246Z,4.22
2023-10-23T06:38:24.884Z,2.85
2023-10-23T06:41:27.620Z,2.60
2023-10-23T06:44:30.032Z,6.40
2023-10-23T06:47:33.925Z,11.05
2023-10-23T06:50:36.509Z,6.93
2023-10-23T06:53:39.186Z,5.45
2023-10-23T06:56:41.655Z,7.28
2023-10-23T06:59:45.517Z,8.02
2023-10-23T07:02:51.380Z,7.35
2023-10-23T07:05:54.112Z,10.68
2023-10-23T07:08:56.411Z,8.07
2023-10-23T07:12:00.673Z,9.60
2023-10-23T07:15:04.185Z,8.20
2023-10-23T07:18:07.029Z,8.23
2023-10-23T07:21:09.382Z,9.38
2023-10-23T07:24:12.044Z,13.43
2023-10-23T07:27:17.122Z,10.55
2023-10-23T07:30:20.089Z,14.07
2023-10-23T07:33:22.684Z,10.73
2023-10-23T07:36:25.382Z,11.43
2023-10-23T07:39:27.805Z,14.45
2023-10-23T07:42:30.501Z,13.90
2023-10-23T07:45:33.033Z,22.50
2023-10-23T07:48:36.236Z,12.13
2023-10-23T07:51:39.828Z,10.25
2023-10-23T07:54:42.624Z,12.35
2023-10-23T07:57:45.004Z,9.07
2023-10-23T08:00:47.575Z,12.30
2023-10-23T08:03:50.542Z,10.02
2023-10-23T08:06:53.010Z,9.57
2023-10-23T08:09:55.763Z,10.52
2023-10-23T08:12:58.074Z,8.60
2023-10-23T08:16:01.649Z,9.27
2023-10-23T08:19:04.796Z,7.97
2023-10-23T08:22:08.450Z,9.43
2023-10-23T08:25:10.915Z,6.12
2023-10-23T08:28:15.099Z,8.45
2023-10-23T08:31:38.421Z,6.00
2023-10-23T08:34:42.365Z,7.70
2023-10-23T08:37:44.815Z,6.93
2023-10-23T08:40:48.472Z,9.15
2023-10-23T08:43:51.037Z,11.55
2023-10-23T08:46:53.656Z,11.20
2023-10-23T08:50:00.767Z,10.70
2023-10-23T08:53:08.709Z,10.32
2023-10-23T08:56:11.598Z,10.55
2023-10-23T08:59:15.668Z,9.80
2023-10-23T09:02:18.335Z,11.60
2023-10-23T09:05:21.909Z,14.85
2023-10-23T09:08:28.593Z,9.63
2023-10-23T09:11:50.054Z,8.57
2023-10-23T09:14:53.671Z,10.80
2023-10-23T09:18:00.027Z,9.52
2023-10-23T09:21:02.566Z,12.70
2023-10-23T09:24:06.030Z,11.07
2023-10-23T09:27:08.463Z,8.93
2023-10-23T09:30:11.576Z,12.37
2023-10-23T09:33:18.187Z,10.55
2023-10-23T09:36:21.991Z,11.95
2023-10-23T09:39:24.520Z,10.77
2023-10-23T09:42:33.409Z,7.97
2023-10-23T09:45:36.465Z,8.48
2023-10-23T09:48:44.377Z,6.87
2023-10-23T09:51:49.866Z,7.37
2023-10-23T09:54:59.742Z,7.72
2023-10-23T09:58:11.090Z,7.07
2023-10-23T10:01:16.419Z,4.65
2023-10-23T10:04:28.001Z,5.80
2023-10-23T10:07:58.777Z,4.47
2023-10-23T10:11:01.861Z,5.97
2023-10-23T10:14:05.528Z,9.10
2023-10-23T10:17:11.220Z,8.70
2023-10-23T10:20:14.015Z,3.45
2023-10-23T10:23:17.446Z,3.95
2023-10-23T10:26:21.148Z,2.85
2023-10-23T10:29:26.869Z,7.70
2023-10-23T10:32:29.137Z,5.72
2023-10-23T10:35:41.576Z,9.15
2023-10-23T10:38:45.031Z,2.92
2023-10-23T10:41:47.602Z,3.75
2023-10-23T10:45:00.923Z,6.35
2023-10-23T10:48:04.071Z,3.97
2023-10-23T10:51:07.048Z,3.03
2023-10-23T10:54:12.491Z,2.50
2023-10-23T10:57:17.162Z,1.85
2023-10-23T11:00:19.834Z,2.58
2023-10-23T11:03:22.346Z,4.25
2023-10-23T11:06:25.569Z,5.40
2023-10-23T11:09:29.060Z,5.50
2023-10-23T11:12:32.134Z,2.92
2023-10-23T11:15:34.337Z,3.40
2023-10-23T11:18:37.299Z,3.78
2023-10-23T11:21:39.706Z,4.37
2023-10-23T11:24:43.106Z,4.37
2023-10-23T11:27:51.234Z,3.85
2023-10-23T11:30:58.362Z,9.18
2023-10-23T11:34:10.752Z,2.33
2023-10-23T11:37:13.544Z,1.95
2023-10-23T11:40:21.047Z,3.40
2023-10-23T11:43:23.745Z,6.43
2023-10-23T11:46:26.361Z,2.97
2023-10-23T11:49:29.004Z,4.72
2023-10-23T11:52:31.369Z,3.17
2023-10-23T11:55:34.931Z,2.67
2023-10-23T11:58:37.306Z,4.00
2023-10-23T12:01:40.016Z,1.80
2023-10-23T12:04:42.839Z,5.35
2023-10-23T12:07:54.180Z,5.95
2023-10-23T12:10:56.903Z,4.05
2023-10-23T12:14:00.734Z,5.28
2023-10-23T12:17:04.665Z,3.28
2023-10-23T12:20:09.562Z,2.87
2023-10-23T12:23:12.094Z,2.78
2023-10-23T12:26:14.651Z,4.43
2023-10-23T12:29:17.946Z,3.20
2023-10-23T12:33:13.306Z,4.00
2023-10-23T12:35:43.632Z,3.35
2023-10-23T12:38:46.029Z,3.58
2023-10-23T12:41:48.672Z,5.28
2023-10-23T12:44:52.119Z,3.72
2023-10-23T12:47:54.750Z,6.65
2023-10-23T12:50:58.472Z,5.03
2023-10-23T12:54:01.718Z,3.60
2023-10-23T12:57:05.230Z,2.30
2023-10-23T13:00:09.138Z,3.95
2023-10-23T13:03:11.457Z,3.83
2023-10-23T13:06:14.120Z,11.10
2023-10-23T13:09:16.381Z,5.55
2023-10-23T13:12:20.380Z,3.53
2023-10-23T13:15:22.669Z,6.12
2023-10-23T13:18:26.242Z,4.35
2023-10-23T13:21:34.454Z,4.70
2023-10-23T13:24:38.450Z,8.40
2023-10-23T13:27:41.528Z,3.75
2023-10-23T13:30:44.374Z,10.68
2023-10-23T13:33:47.172Z,5.70
2023-10-23T13:36:49.826Z,4.80
2023-10-23T13:39:52.195Z,6.10
2023-10-23T13:42:54.899Z,4.05
2023-10-23T13:45:57.300Z,5.78
2023-10-23T13:49:00.158Z,5.78
2023-10-23T13:52:02.491Z,7.07
2023-10-23T13:55:05.688Z,6.45
2023-10-23T13:58:08.085Z,3.42
2023-10-23T14:01:10.978Z,6.28
2023-10-23T14:04:14.211Z,5.87
2023-10-23T14:07:16.910Z,6.43
2023-10-23T14:10:21.331Z,10.80
2023-10-23T14:13:24.399Z,6.45
2023-10-23T14:16:28.042Z,4.00
2023-10-23T14:19:45.785Z,5.43
2023-10-23T14:22:50.527Z,4.25
2023-10-23T14:25:52.827Z,8.90
2023-10-23T14:28:56.977Z,5.80
2023-10-23T14:31:59.363Z,3.28
2023-10-23T14:35:02.537Z,5.18
2023-10-23T14:38:05.600Z,6.28
2023-10-23T14:41:08.333Z,3.20
2023-10-23T14:44:10.696Z,4.50
2023-10-23T14:47:13.661Z,4.15
2023-10-23T14:50:15.911Z,10.57
2023-10-23T14:53:18.566Z,12.80
2023-10-23T14:56:20.915Z,5.40
2023-10-23T14:59:23.616Z,7.95
2023-10-23T15:02:27.538Z,6.85
2023-10-23T15:05:32.658Z,3.03
2023-10-23T15:08:34.976Z,5.28
2023-10-23T15:11:37.565Z,5.15
2023-10-23T15:14:39.795Z,9.05
2023-10-23T15:17:42.559Z,8.07
2023-10-23T15:20:45.577Z,3.35
2023-10-23T15:23:48.135Z,6.57
2023-10-23T15:26:50.517Z,2.65
2023-10-23T15:29:53.298Z,3.62
2023-10-23T15:32:55.540Z,5.87
2023-10-23T15:36:00.255Z,6.22
2023-10-23T15:39:02.655Z,6.78
2023-10-23T15:42:05.315Z,6.85
2023-10-23T15:45:08.020Z,6.62
2023-10-23T15:48:10.574Z,6.20
2023-10-23T15:51:13.183Z,5.32
2023-10-23T15:54:15.918Z,5.37
2023-10-23T15:57:18.336Z,13.35
2023-10-23T16:00:22.331Z,5.18
2023-10-23T16:03:25.217Z,7.75
2023-10-23T16:06:28.082Z,6.60
2023-10-23T16:09:31.037Z,5.82
2023-10-23T16:12:33.373Z,6.68
2023-10-23T16:15:35.964Z,6.85
2023-10-23T16:18:40.382Z,5.18
2023-10-23T16:21:43.002Z,12.37
2023-10-23T16:24:45.380Z,10.48
2023-10-23T16:27:48.129Z,9.30
2023-10-23T16:30:50.571Z,11.63
2023-10-23T16:33:53.181Z,8.95
2023-10-23T16:36:55.730Z,7.20
2023-10-23T16:39:58.509Z,8.02
2023-10-23T16:43:01.335Z,8.95
2023-10-23T16:46:04.116Z,10.55
2023-10-23T16:49:06.455Z,8.70
2023-10-23T16:52:09.851Z,18.65
2023-10-23T16:55:12.258Z,10.80
2023-10-23T16:58:18.301Z,7.22
2023-10-23T17:01:20.758Z,8.00
2023-10-23T17:04:23.747Z,13.68
2023-10-23T17:07:26.386Z,19.55
2023-10-23T17:10:29.028Z,11.63
2023-10-23T17:13:31.432Z,15.68
2023-10-23T17:16:34.257Z,6.40
2023-10-23T17:19:36.679Z,12.88
2023-10-23T17:22:40.971Z,17.52
2023-10-23T17:25:46.302Z,11.38
2023-10-23T17:28:48.843Z,10.32
2023-10-23T17:31:53.467Z,13.90
2023-10-23T17:34:56.434Z,7.55
2023-10-23T17:37:59.747Z,17.48
2023-10-23T17:41:03.606Z,11.55
2023-10-23T17:44:07.815Z,12.32
2023-10-23T17:47:10.494Z,12.55
2023-10-23T17:50:12.876Z,15.52
2023-10-23T17:53:15.602Z,15.43
2023-10-23T17:56:17.951Z,17.10
2023-10-23T17:59:20.479Z,11.60
2023-10-23T18:02:22.845Z,6.72
2023-10-23T18:05:25.956Z,11.90
2023-10-23T18:08:28.469Z,11.70
2023-10-23T18:11:31.181Z,8.65
2023-10-23T18:14:33.616Z,17.73
2023-10-23T18:17:36.224Z,16.40
2023-10-23T18:20:38.645Z,10.05
2023-10-23T18:23:41.573Z,12.30
2023-10-23T18:26:43.894Z,12.48
2023-10-23T18:29:46.570Z,16.62
2023-10-23T18:32:48.919Z,7.43
2023-10-23T18:35:53.411Z,8.10
2023-10-23T18:38:55.764Z,12.68
2023-10-23T18:41:58.539Z,19.55
2023-10-23T18:45:04.339Z,13.80
2023-10-23T18:48:07.831Z,9.52
2023-10-23T18:51:13.092Z,10.27
2023-10-23T18:54:18.593Z,13.45
2023-10-23T18:57:20.829Z,12.30
2023-10-23T19:00:23.479Z,10.50
2023-10-23T19:03:26.869Z,11.65
2023-10-23T19:06:30.917Z,12.75
2023-10-23T19:09:35.598Z,11.02
2023-10-23T19:12:38.168Z,10.68
2023-10-23T19:15:40.452Z,9.80
2023-10-23T19:18:43.016Z,14.25
2023-10-23T19:21:45.659Z,14.35
2023-10-23T19:24:48.201Z,11.98
2023-10-23T19:27:50.566Z,17.15
2023-10-23T19:30:54.542Z,15.77
2023-10-23T19:33:57.213Z,9.90
2023-10-23T19:37:00.339Z,13.73
2023-10-23T19:40:05.730Z,11.70
2023-10-23T19:43:18.553Z,12.15
2023-10-23T19:46:21.831Z,14.25
2023-10-23T19:49:24.977Z,16.62
2023-10-23T19:52:28.147Z,14.87
2023-10-23T19:55:44.859Z,10.82
2023-10-23T19:58:51.828Z,16.30
2023-10-23T20:02:00.807Z,18.55
2023-10-23T20:05:04.387Z,17.50
2023-10-23T20:08:07.163Z,12.20
2023-10-23T20:11:10.007Z,16.33
2023-10-23T20:14:15.922Z,14.82
2023-10-23T20:17:19.062Z,15.88
2023-10-23T20:20:21.723Z,14.87
2023-10-23T20:23:24.525Z,11.05
2023-10-23T20:26:26.801Z,12.93
2023-10-23T20:29:29.401Z,14.87
2023-10-23T20:32:33.001Z,14.35
2023-10-23T20:35:35.757Z,8.88
2023-10-23T20:38:41.162Z,10.13
2023-10-23T20:41:43.794Z,16.83
2023-10-23T20:44:47.078Z,13.90
2023-10-23T20:47:49.669Z,11.43
2023-10-23T20:50:52.047Z,10.98
2023-10-23T20:53:54.796Z,12.27
2023-10-23T20:56:58.074Z,12.90
2023-10-23T21:00:00.619Z,10.73
2023-10-23T21:03:03.793Z,16.08
2023-10-23T21:06:06.947Z,7.97
2023-10-23T21:09:09.332Z,14.77
2023-10-23T21:12:11.907Z,11.63
2023-10-23T21:15:14.325Z,10.25
2023-10-23T21:18:17.037Z,13.25
2023-10-23T21:21:19.505Z,12.45
2023-10-23T21:24:22.178Z,12.93
2023-10-23T21:27:24.775Z,16.50
2023-10-23T21:30:27.407Z,12.48
2023-10-23T21:33:30.261Z,18.30
2023-10-23T21:36:32.860Z,11.63
2023-10-23T21:39:35.259Z,13.27
2023-10-23T21:42:37.885Z,13.75
2023-10-23T21:45:43.356Z,9.23
2023-10-23T21:48:45.948Z,20.70
2023-10-23T21:51:48.801Z,11.60
2023-10-23T21:54:51.693Z,13.43
2023-10-23T21:57:55.709Z,12.52
2023-10-23T22:00:58.730Z,15.07
2023-10-23T22:04:01.666Z,16.80
2023-10-23T22:07:04.706Z,15.85
2023-10-23T22:10:08.147Z,16.25
2023-10-23T22:13:11.059Z,11.00
2023-10-23T22:16:13.852Z,13.48
2023-10-23T22:19:16.526Z,14.55
2023-10-23T22:22:19.032Z,12.85
2023-10-23T22:25:22.387Z,9.82
2023-10-23T22:28:25.746Z,10.95
2023-10-23T22:31:28.160Z,14.80
2023-10-23T22:34:31.187Z,10.98
2023-10-23T22:38:00.589Z,10.93
2023-10-23T22:40:57.235Z,9.55
2023-10-23T22:43:59.574Z,12.50
2023-10-23T22:47:02.261Z,13.40
2023-10-23T22:50:05.492Z,15.05
2023-10-23T22:53:08.330Z,11.32
2023-10-23T22:56:12.232Z,12.50
2023-10-23T22:59:15.480Z,9.95
2023-10-23T23:02:18.665Z,12.82
2023-10-23T23:05:21.826Z,8.70
2023-10-23T23:08:26.353Z,11.70
2023-10-23T23:11:29.234Z,12.10
2023-10-23T23:14:31.773Z,12.25
2023-10-23T23:17:42.031Z,9.68
2023-10-23T23:20:48.503Z,14.65
2023-10-23T23:23:51.084Z,12.30
2023-10-23T23:26:54.484Z,13.95
2023-10-23T23:29:57.598Z,16.48
2023-10-23T23:33:00.080Z,12.95
2023-10-23T23:36:03.085Z,14.02
2023-10-23T23:39:05.448Z,10.60
2023-10-23T23:42:08.103Z,12.05
2023-10-23T23:45:10.455Z,12.05
2023-10-23T23:48:13.178Z,12.35
2023-10-23T23:51:15.554Z,11.75
2023-10-23T23:54:18.118Z,10.70
2023-10-23T23:57:20.497Z,13.50
